createdAt,value
2019-03-28T03:27:56.828Z,17.10
2019-03-28T03:51:17.816Z,16.50
2019-03-28T03:52:18.460Z,17.50
2019-03-28T03:53:17.487Z,20.20
2019-03-28T03:54:17.373Z,18.60
2019-03-28T03:55:17.755Z,18.60
2019-03-28T03:56:17.266Z,17.90
2019-03-28T03:57:17.212Z,18.70
2019-03-28T03:58:18.635Z,16.90
2019-03-28T03:59:17.290Z,20.20
2019-03-28T04:00:17.260Z,18.30
2019-03-28T04:01:17.307Z,18.80
2019-03-28T04:02:17.290Z,19.30
2019-03-28T04:03:17.329Z,16.20
2019-03-28T04:04:17.309Z,19.60
2019-03-28T04:05:17.376Z,17.30
2019-03-28T04:06:17.380Z,18.70
2019-03-28T04:07:17.365Z,19.40
2019-03-28T04:08:17.365Z,17.40
2019-03-28T04:09:17.405Z,19.70
2019-03-28T04:10:17.399Z,17.50
2019-03-28T04:11:17.420Z,16.80
2019-03-28T04:12:17.420Z,16.40
2019-03-28T04:13:17.438Z,19.20
2019-03-28T04:14:17.449Z,17.60
2019-03-28T04:15:17.484Z,18.80
2019-03-28T04:16:17.478Z,18.60
2019-03-28T04:17:17.496Z,18.20
2019-03-28T04:18:21.696Z,17.50
2019-03-28T04:19:17.590Z,17.90
2019-03-28T04:20:17.559Z,21.20
2019-03-28T04:21:17.691Z,18.90
2019-03-28T04:22:17.567Z,20.80
2019-03-28T04:23:17.610Z,18.30
2019-03-28T04:24:17.588Z,19.90
2019-03-28T04:25:17.606Z,20.40
2019-03-28T04:26:17.620Z,19.80
2019-03-28T04:27:17.667Z,17.00
2019-03-28T04:28:30.784Z,18.70
2019-03-28T04:29:17.667Z,20.90
2019-03-28T04:30:17.707Z,18.90
2019-03-28T04:31:17.693Z,17.90
2019-03-28T04:32:17.764Z,21.20
2019-03-28T04:33:17.717Z,20.20
2019-03-28T04:34:17.765Z,17.00
2019-03-28T04:35:17.747Z,19.70
2019-03-28T04:36:17.787Z,20.00
2019-03-28T04:37:17.788Z,20.30
2019-03-28T04:38:17.828Z,18.80
2019-03-28T04:39:17.868Z,20.10
2019-03-28T04:40:17.821Z,20.40
2019-03-28T04:41:17.891Z,22.80
2019-03-28T04:42:17.858Z,20.10
2019-03-28T04:43:17.863Z,21.70
2019-03-28T04:44:17.876Z,17.90
2019-03-28T04:45:17.912Z,18.80
2019-03-28T04:46:17.940Z,20.10
2019-03-28T04:47:17.922Z,18.60
2019-03-28T04:48:17.934Z,18.50
2019-03-28T04:49:18.561Z,20.60
2019-03-28T04:50:17.997Z,19.90
2019-03-28T04:51:17.988Z,19.60
2019-03-28T04:52:18.017Z,19.80
2019-03-28T04:53:18.053Z,22.40
2019-03-28T04:54:18.020Z,21.20
2019-03-28T04:55:18.040Z,21.40
2019-03-28T04:56:18.083Z,22.90
2019-03-28T04:57:18.069Z,19.60
2019-03-28T04:58:18.110Z,19.20
2019-03-28T04:59:18.144Z,20.10
2019-03-28T05:00:18.128Z,22.20
2019-03-28T05:01:18.123Z,21.60
2019-03-28T05:02:18.200Z,22.50
2019-03-28T05:03:18.152Z,22.60
2019-03-28T05:04:20.957Z,21.50
2019-03-28T05:05:18.202Z,21.90
2019-03-28T05:06:18.197Z,21.00
2019-03-28T05:07:18.240Z,23.60
2019-03-28T05:08:18.269Z,22.40
2019-03-28T05:09:18.237Z,21.20
2019-03-28T05:10:18.313Z,24.60
2019-03-28T05:11:18.277Z,22.60
2019-03-28T05:12:18.309Z,19.80
2019-03-28T05:13:18.397Z,23.10
2019-03-28T05:14:18.315Z,22.20
2019-03-28T05:15:20.341Z,25.60
2019-03-28T05:16:18.344Z,24.30
2019-03-28T05:17:18.354Z,22.00
2019-03-28T05:18:18.370Z,23.50
2019-03-28T05:19:18.416Z,20.70
2019-03-28T05:20:18.403Z,22.40
2019-03-28T05:21:18.492Z,21.40
2019-03-28T05:22:18.433Z,22.30
2019-03-28T05:23:18.506Z,22.60
2019-03-28T05:24:18.533Z,24.00
2019-03-28T05:25:18.477Z,23.70
2019-03-28T05:26:18.515Z,24.70
2019-03-28T05:27:18.544Z,22.90
2019-03-28T05:28:18.517Z,22.10
2019-03-28T05:29:18.562Z,24.60
2019-03-28T05:30:18.542Z,23.70
2019-03-28T05:31:18.610Z,24.60
2019-03-28T05:32:18.570Z,22.30
2019-03-28T05:33:18.591Z,23.50
2019-03-28T05:34:18.602Z,23.70
2019-03-28T05:35:18.665Z,24.80
2019-03-28T05:36:18.735Z,24.20
2019-03-28T05:37:18.658Z,24.30
2019-03-28T05:38:18.659Z,21.90
2019-03-28T05:39:19.571Z,22.50
2019-03-28T05:40:18.703Z,23.10
2019-03-28T05:41:18.747Z,23.80
2019-03-28T05:42:18.726Z,25.40
2019-03-28T05:43:18.749Z,23.30
2019-03-28T05:44:18.800Z,22.40
2019-03-28T05:45:18.798Z,20.90
2019-03-28T05:46:18.803Z,22.10
2019-03-28T05:47:21.866Z,24.40
2019-03-28T05:48:18.855Z,20.40
2019-03-28T05:49:18.859Z,23.20
2019-03-28T05:50:18.833Z,23.20
2019-03-28T05:51:18.851Z,25.80
2019-03-28T05:52:18.931Z,23.50
2019-03-28T05:53:18.881Z,25.10
2019-03-28T05:54:18.926Z,23.80
2019-03-28T05:55:18.928Z,22.60
2019-03-28T05:56:18.934Z,21.70
2019-03-28T05:57:18.956Z,20.80
2019-03-28T05:58:18.959Z,23.20
2019-03-28T05:59:19.535Z,21.30
2019-03-28T06:00:18.988Z,23.20
2019-03-28T06:01:19.036Z,21.40
2019-03-28T06:02:19.024Z,22.90
2019-03-28T06:03:19.041Z,20.80
2019-03-28T06:04:19.047Z,20.90
2019-03-28T06:05:19.121Z,20.90
2019-03-28T06:06:19.113Z,22.10
2019-03-28T06:07:19.109Z,22.20
2019-03-28T06:08:19.102Z,23.30
2019-03-28T06:09:19.367Z,22.40
2019-03-28T06:10:19.129Z,25.20
2019-03-28T06:11:19.142Z,22.00
2019-03-28T06:12:19.366Z,21.40
2019-03-28T06:13:19.172Z,23.20
2019-03-28T06:14:19.186Z,23.30
2019-03-28T06:15:19.242Z,22.90
2019-03-28T06:16:19.253Z,24.70
2019-03-28T06:17:19.308Z,22.10
2019-03-28T06:18:19.243Z,23.60
2019-03-28T06:19:19.259Z,23.20
2019-03-28T06:20:19.286Z,23.30
2019-03-28T06:21:19.291Z,23.90
2019-03-28T06:22:19.305Z,23.50
2019-03-28T06:23:19.369Z,23.50
2019-03-28T06:24:19.336Z,23.10
2019-03-28T06:25:19.387Z,23.60
2019-03-28T06:26:19.412Z,24.80
2019-03-28T06:27:19.397Z,22.20
2019-03-28T06:28:19.432Z,22.10
2019-03-28T06:29:24.121Z,23.60
2019-03-28T06:30:19.468Z,24.80
2019-03-28T06:31:19.564Z,22.70
2019-03-28T06:32:20.866Z,22.70
2019-03-28T06:33:21.390Z,22.10
2019-03-28T06:34:21.889Z,23.90
2019-03-28T06:35:21.912Z,24.80
2019-03-28T06:37:19.580Z,26.60
2019-03-28T06:38:19.575Z,24.20
2019-03-28T06:39:19.556Z,23.50
2019-03-28T06:40:19.578Z,24.40
2019-03-28T06:41:19.614Z,24.80
2019-03-28T06:42:19.645Z,25.00
2019-03-28T06:43:19.648Z,25.90
2019-03-28T06:44:19.630Z,25.10
2019-03-28T06:45:19.652Z,24.80
2019-03-28T06:46:19.666Z,25.80
2019-03-28T06:47:21.058Z,25.50
2019-03-28T06:48:19.757Z,26.60
2019-03-28T06:49:19.747Z,26.40
2019-03-28T06:50:19.802Z,26.80
2019-03-28T06:51:19.757Z,25.00
2019-03-28T06:52:19.889Z,24.50
2019-03-28T06:53:19.804Z,27.30
2019-03-28T06:54:19.785Z,27.10
2019-03-28T06:55:19.828Z,29.00
2019-03-28T06:56:19.812Z,28.30
2019-03-28T06:57:19.825Z,28.10
2019-03-28T06:58:19.880Z,26.30
2019-03-28T06:59:19.856Z,27.00
2019-03-28T07:00:19.894Z,29.50
2019-03-28T07:05:22.256Z,28.40
2019-03-28T07:06:20.039Z,25.60
2019-03-28T07:07:20.419Z,26.00
2019-03-28T07:08:19.709Z,27.60
2019-03-28T07:09:24.919Z,23.40
2019-03-28T07:10:19.412Z,26.50
2019-03-28T07:11:19.437Z,25.10
2019-03-28T07:12:20.391Z,24.80
2019-03-28T07:13:20.170Z,27.20
2019-03-28T07:14:19.581Z,26.90
2019-03-28T07:15:20.475Z,29.10
2019-03-28T07:16:21.100Z,28.10
2019-03-28T07:17:19.565Z,27.00
2019-03-28T07:18:20.175Z,29.90
2019-03-28T07:19:19.544Z,27.90
2019-03-28T07:20:19.656Z,28.60
2019-03-28T07:21:19.644Z,25.00
2019-03-28T07:22:19.616Z,25.70
2019-03-28T07:23:26.573Z,26.50
2019-03-28T07:24:21.227Z,29.50
2019-03-28T07:25:21.256Z,30.10
2019-03-28T07:26:20.117Z,24.30
2019-03-28T07:27:20.367Z,29.20
2019-03-28T07:28:21.376Z,28.60
2019-03-28T07:29:21.188Z,27.20
2019-03-28T07:30:20.317Z,28.30
2019-03-28T07:31:21.633Z,29.00
2019-03-28T07:32:20.222Z,28.10
2019-03-28T07:33:20.034Z,26.60
2019-03-28T07:34:23.737Z,25.90
2019-03-28T07:35:22.881Z,26.90
2019-03-28T07:36:20.648Z,26.80
2019-03-28T07:37:20.059Z,26.90
2019-03-28T07:38:21.116Z,27.10
2019-03-28T07:39:20.636Z,25.80
2019-03-28T07:40:20.161Z,27.80
2019-03-28T07:41:31.004Z,27.30
